Latest Weather Observations for Cessnock Airport

IDN60801

Issued at 1:02 pm EST Tuesday 30 May 2017 (issued every 30 minutes, with the page automatically refreshed every 10 minutes)

About weather observations | Map of weather stations | Latest weather observations for NSW | Other Formats
Station Details ID: 061260 Name: CESSNOCK AIRPORT AWS Lat: -32.79 Lon: 151.34 Height: 61.0 m
Data from the previous 72 hours. | See also: Recent months at Cessnock Airport
Date/Time
EST
Temp
°C
App
Temp
°C
Dew
Point
°C
Rel
Hum
%
Delta-T
°C
Wind Press
QNH
hPa
Press
MSL
hPa
Rain since
9am
mm
Dir  Spd
km/h
Gust
km/h
Spd
kts
Gust
kts
30/01:00pm 14.8 10.0 2.7 44 5.4 NNW 17 28 9 15 1020.9 1020.9 0.0
30/12:30pm 14.7 10.4 3.2 46 5.2 NW 15 24 8 13 1021.1 1021.1 0.0
30/12:00pm 14.3 9.9 2.9 46 5.1 NNW 15 20 8 11 1021.6 1021.6 0.0
30/11:30am 13.1 8.8 3.5 52 4.3 NW 15 26 8 14 1022.1 1022.1 0.0
30/11:00am 11.6 6.5 2.9 55 3.8 NW 19 24 10 13 1022.4 1022.4 0.0
30/10:30am 10.6 5.8 2.7 58 3.4 NW 17 26 9 14 1022.8 1022.7 0.0
30/10:00am 9.8 4.7 3.3 64 2.8 NNW 19 28 10 15 1023.3 1023.2 0.0
30/09:30am 9.0 3.7 3.2 67 2.5 NW 20 28 11 15 1023.5 1023.4 0.0
30/09:00am 7.9 3.9 2.8 70 2.1 NW 13 20 7 11 1023.6 1023.5 0.0
30/08:30am 7.1 3.9 3.2 76 1.6 NNW 9 13 5 7 1023.6 1023.5 0.0
30/08:00am 4.9 2.9 4.2 95 0.3 NNE 4 15 2 8 1023.6 1023.5 0.0
30/07:30am 0.4 -2.7 0.0 97 0.1 NNE 6 7 3 4 1023.7 1023.6 0.0
30/07:00am -0.4 -2.9 -0.8 97 0.1 ENE 2 7 1 4 1023.6 1023.5 0.0
30/06:30am -1.9 -4.2 -2.3 97 0.0 CALM 0 6 0 3 1023.5 1023.4 0.0
30/06:00am -1.3 -3.5 -1.7 97 0.1 CALM 0 0 0 0 1023.2 1023.1 0.0
30/05:30am -1.0 -3.2 -1.4 97 0.1 CALM 0 0 0 0 1022.8 1022.7 0.0
30/05:00am -1.6 -3.9 -2.2 96 0.1 CALM 0 0 0 0 1022.4 1022.4 0.0
30/04:30am -0.9 -3.1 -1.3 97 0.1 CALM 0 0 0 0 1022.4 1022.4 0.0
30/04:00am -0.6 -2.7 -1.0 97 0.1 CALM 0 0 0 0 1022.4 1022.4 0.0
30/03:30am -0.3 -2.4 -0.9 96 0.2 CALM 0 0 0 0 1022.6 1022.5 0.0
30/03:00am -0.4 -2.5 -1.0 96 0.2 CALM 0 0 0 0 1022.4 1022.4 0.0
30/02:30am 0.0 -2.1 -0.6 96 0.2 CALM 0 0 0 0 1022.6 1022.5 0.0
30/02:00am 0.5 -1.5 -0.1 96 0.2 CALM 0 0 0 0 1022.2 1022.2 0.0
30/01:30am 0.1 -2.0 -0.6 95 0.3 CALM 0 0 0 0 1022.3 1022.3 0.0
30/01:00am 0.9 -1.1 0.0 94 0.3 CALM 0 0 0 0 1022.7 1022.6 0.0
30/12:30am 1.3 -0.6 0.4 94 0.3 CALM 0 0 0 0 1022.7 1022.6 0.0
30/12:00am 0.9 -1.1 -0.1 93 0.4 CALM 0 0 0 0 1022.7 1022.6 0.0
 
Date/Time
EST
Temp
°C
App
Temp
°C
Dew
Point
°C
Rel
Hum
%
Delta-T
°C
Wind Press
QNH
hPa
Press
MSL
hPa
Rain since
9am
mm
Dir  Spd
km/h
Gust
km/h
Spd
kts
Gust
kts
29/11:30pm 1.1 -0.9 -0.1 92 0.4 CALM 0 2 0 1 1022.8 1022.7 0.0
29/11:00pm 1.6 -0.3 0.4 92 0.4 CALM 0 0 0 0 1022.8 1022.7 0.0
29/10:30pm 2.4 0.6 1.1 91 0.5 CALM 0 0 0 0 1022.6 1022.5 0.0
29/10:00pm 2.4 0.6 0.9 90 0.6 CALM 0 4 0 2 1022.3 1022.3 0.0
29/09:30pm 2.0 -0.3 0.2 88 0.7 W 2 7 1 4 1022.2 1022.2 0.0
29/09:00pm 2.8 0.6 1.2 89 0.6 SSE 2 7 1 4 1022.1 1022.1 0.0
29/08:30pm 2.8 -0.4 0.7 86 0.8 WSW 7 9 4 5 1021.9 1021.9 0.0
29/08:00pm 4.2 1.7 1.4 82 1.1 SW 4 9 2 5 1021.6 1021.6 0.0
29/07:30pm 3.7 0.7 0.8 81 1.1 W 6 9 3 5 1021.2 1021.2 0.0
29/07:00pm 4.8 1.6 0.8 75 1.5 WSW 7 11 4 6 1021.0 1021.0 0.0
29/06:30pm 7.3 4.3 2.2 70 2.1 WSW 7 9 4 5 1020.5 1020.5 0.0
29/06:00pm 7.7 4.9 1.8 66 2.4 W 6 7 3 4 1020.1 1020.1 0.0
29/05:30pm 9.0 6.0 2.1 62 2.9 W 7 9 4 5 1019.7 1019.7 0.0
29/05:00pm 12.7 10.7 0.1 42 5.2 CALM 0 6 0 3 1019.5 1019.5 0.0
29/04:30pm 16.3 13.0 0.0 33 7.0 SW 7 9 4 5 1019.1 1019.1 0.0
29/04:00pm 17.3 13.1 -0.9 29 7.7 WSW 11 15 6 8 1018.9 1018.9 0.0
29/03:30pm 17.4 12.7 -1.8 27 8.0 WSW 13 20 7 11 1018.4 1018.4 0.0
29/03:00pm 18.0 13.7 -1.3 27 8.2 WSW 11 17 6 9 1018.3 1018.3 0.0
29/02:30pm 17.9 13.3 -0.8 28 8.0 WSW 13 20 7 11 1017.8 1017.8 0.0
29/02:00pm 18.2 13.3 -0.6 28 8.1 W 15 24 8 13 1017.6 1017.6 0.0
29/01:30pm 17.8 12.9 2.2 35 7.1 WSW 17 24 9 13 1017.7 1017.7 0.0
29/01:00pm 17.9 12.8 1.0 32 7.5 WSW 17 28 9 15 1017.7 1017.7 0.0
29/12:30pm 17.7 12.8 2.1 35 7.1 WSW 17 26 9 14 1017.7 1017.7 0.0
29/12:00pm 17.2 12.2 1.6 35 7.0 WNW 17 28 9 15 1017.9 1017.9 0.0
29/11:30am 16.2 12.2 4.9 47 5.4 WNW 15 24 8 13 1018.2 1018.2 0.0
29/11:00am 16.2 12.3 5.5 49 5.1 NW 15 26 8 14 1018.4 1018.4 0.0
29/10:30am 15.8 12.1 4.5 47 5.3 WNW 13 20 7 11 1018.5 1018.5 0.0
29/10:00am 14.9 11.1 5.7 54 4.4 NW 15 20 8 11 1018.7 1018.7 0.0
29/09:30am 14.0 9.8 5.9 58 3.9 NW 17 26 9 14 1018.6 1018.6 0.0
29/09:00am 12.8 9.0 5.9 63 3.3 NW 15 22 8 12 1018.2 1018.2 0.0
29/08:30am 12.1 9.0 5.7 65 3.0 NNW 11 17 6 9 1018.4 1018.4 0.0
29/08:00am 10.9 7.5 5.7 70 2.4 NNW 13 24 7 13 1017.9 1017.9 0.0
29/07:30am 9.9 6.0 5.5 74 2.0 NNW 15 22 8 12 1017.4 1017.4 0.0
29/07:00am 10.0 6.5 5.4 73 2.1 NNW 13 20 7 11 1017.2 1017.2 0.0
29/06:30am 9.9 5.7 5.5 74 2.0 NW 17 24 9 13 1016.7 1016.7 0.0
29/06:00am 10.0 6.2 5.6 74 2.0 NW 15 20 8 11 1016.4 1016.4 0.0
29/05:30am 10.2 6.7 5.4 72 2.2 NW 13 20 7 11 1016.0 1016.0 0.0
29/05:00am 10.0 6.4 5.0 71 2.3 NW 13 19 7 10 1015.9 1015.9 0.0
29/04:30am 8.2 6.7 5.0 80 1.4 SW 2 9 1 5 1015.6 1015.6 0.0
29/04:00am 11.7 9.0 3.7 58 3.6 WNW 7 13 4 7 1015.4 1015.4 0.0
29/03:30am 11.6 8.6 3.9 59 3.4 WNW 9 13 5 7 1015.2 1015.2 0.0
29/03:00am 12.0 8.4 5.0 62 3.2 WNW 13 20 7 11 1015.0 1015.0 0.0
29/02:30am 11.4 8.6 5.3 66 2.8 WNW 9 11 5 6 1014.8 1014.8 0.0
29/02:00am 13.2 10.4 5.1 58 3.8 WNW 9 11 5 6 1014.5 1014.5 0.0
29/01:30am 14.5 11.1 5.8 56 4.2 W 13 20 7 11 1014.6 1014.6 0.0
29/01:00am 12.5 9.5 7.8 73 2.3 WSW 13 20 7 11 1014.1 1014.1 0.0
29/12:30am 10.4 8.2 8.0 85 1.2 WSW 9 9 5 5 1013.8 1013.8 0.0
29/12:00am 10.3 7.7 7.7 84 1.3 WSW 11 13 6 7 1013.5 1013.5 0.0
 
Date/Time
EST
Temp
°C
App
Temp
°C
Dew
Point
°C
Rel
Hum
%
Delta-T
°C
Wind Press
QNH
hPa
Press
MSL
hPa
Rain since
9am
mm
Dir  Spd
km/h
Gust
km/h
Spd
kts
Gust
kts
28/11:30pm 11.8 9.1 9.0 83 1.4 WSW 13 15 7 8 1013.4 1013.4 0.0
28/11:00pm 10.7 8.8 9.1 90 0.8 WSW 9 15 5 8 1013.0 1013.0 0.0
28/10:30pm 11.6 10.2 9.5 87 1.1 W 7 11 4 6 1012.8 1012.8 0.0
28/10:00pm 13.1 11.5 10.3 83 1.5 NW 9 13 5 7 1012.5 1012.5 0.0
28/09:30pm 12.6 11.1 10.7 88 1.0 NW 9 11 5 6 1012.6 1012.6 0.0
28/09:00pm 12.3 10.6 10.0 86 1.2 NNW 9 11 5 6 1012.4 1012.4 0.0
28/08:30pm 12.7 11.7 11.1 90 0.8 NNW 7 9 4 5 1012.2 1012.2 0.0
28/08:00pm 11.6 10.5 10.0 90 0.8 NW 6 7 3 4 1012.1 1012.1 0.0
28/07:30pm 11.8 11.9 10.0 89 0.9 CALM 0 0 0 0 1011.7 1011.7 0.0
28/07:00pm 12.1 11.3 9.8 86 1.2 WNW 4 6 2 3 1011.5 1011.5 0.0
28/06:30pm 13.3 12.5 11.2 87 1.1 W 6 7 3 4 1011.2 1011.1 0.0
28/06:00pm 14.2 13.7 10.8 80 1.8 NNW 4 7 2 4 1010.9 1010.8 0.0
28/05:30pm 15.4 14.6 11.2 76 2.3 NNW 6 7 3 4 1010.9 1010.8 0.0
28/05:00pm 17.6 16.8 11.2 66 3.5 NNW 6 7 3 4 1010.7 1010.6 0.0
28/04:30pm 19.7 18.9 11.7 60 4.4 NNW 7 11 4 6 1010.6 1010.5 0.0
28/04:00pm 20.5 18.6 11.7 57 4.9 NNW 13 19 7 10 1010.5 1010.4 0.0
28/03:30pm 21.1 19.3 12.0 56 5.1 NNW 13 22 7 12 1010.6 1010.5 0.0
28/03:00pm 21.3 18.4 12.2 56 5.1 NNW 19 30 10 16 1010.8 1010.7 0.0
28/02:30pm 21.2 18.7 12.3 57 5.0 NW 17 26 9 14 1010.9 1010.8 0.0
28/02:00pm 20.9 17.9 12.1 57 4.9 NW 19 28 10 15 1011.2 1011.1 0.0
28/01:30pm 20.0 17.4 12.0 60 4.5 NW 17 28 9 15 1011.5 1011.5 0.0
28/01:00pm 20.4 17.4 12.1 59 4.7 NW 19 28 10 15 1012.0 1012.0 0.0
28/12:30pm 18.9 16.6 11.7 63 4.0 NW 15 26 8 14 1012.4 1012.4 0.0
28/12:00pm 19.2 16.1 11.7 62 4.1 NW 19 28 10 15 1012.8 1012.8 0.0
28/11:30am 19.8 16.8 12.1 61 4.3 WNW 19 30 10 16 1013.2 1013.2 0.0
28/11:00am 19.5 16.7 11.3 59 4.5 NW 17 26 9 14 1013.6 1013.6 0.0
28/10:30am 19.0 15.8 11.3 61 4.2 NNW 19 28 10 15 1013.9 1013.9 0.0
28/10:00am 18.1 15.7 11.4 65 3.7 NW 15 24 8 13 1014.4 1014.4 0.0
28/09:30am 15.9 12.9 10.7 71 2.8 NW 17 28 9 15 1014.5 1014.5 0.0
28/09:00am 15.1 12.7 11.5 79 1.9 NW 15 24 8 13 1014.2 1014.2 0.0
28/08:30am 11.5 9.1 11.3 99 0.1 NW 15 20 8 11 1014.3 1014.3 0.0
28/08:00am 6.9 6.2 6.8 99 0.0 CALM 0 7 0 4 1014.4 1014.4 0.0
28/07:30am 6.5 4.9 6.2 98 0.1 N 4 7 2 4 1014.3 1014.3 0.0
28/07:00am 6.3 5.4 6.0 98 0.1 CALM 0 0 0 0 1014.1 1014.1 0.0
28/06:30am 5.7 4.7 5.4 98 0.1 CALM 0 0 0 0 1013.9 1013.9 0.0
28/06:00am 5.4 4.3 5.1 98 0.1 CALM 0 0 0 0 1013.9 1013.9 0.0
28/05:30am 5.3 4.2 5.0 98 0.1 CALM 0 0 0 0 1014.0 1014.0 0.0
28/05:00am 5.3 3.8 5.0 98 0.1 WNW 2 7 1 4 1014.0 1014.0 0.0
28/04:30am 5.3 4.2 5.0 98 0.1 CALM 0 0 0 0 1013.8 1013.8 0.0
28/04:00am 5.6 4.5 5.3 98 0.1 CALM 0 0 0 0 1014.2 1014.2 0.0
28/03:30am 6.0 5.0 5.7 98 0.1 CALM 0 0 0 0 1014.4 1014.4 0.0
28/03:00am 5.9 4.9 5.6 98 0.1 CALM 0 0 0 0 1014.7 1014.7 0.0
28/02:30am 5.5 4.4 5.2 98 0.1 CALM 0 0 0 0 1015.0 1015.0 0.0
28/02:00am 5.8 4.4 5.5 98 0.1 WSW 2 6 1 3 1015.3 1015.3 0.0
28/01:30am 5.6 4.5 5.2 97 0.2 CALM 0 0 0 0 1015.6 1015.6 0.0
28/01:00am 5.7 4.6 5.3 97 0.2 CALM 0 0 0 0 1015.8 1015.8 0.0
28/12:30am 5.8 4.8 5.4 97 0.2 CALM 0 0 0 0 1016.0 1016.0 0.0
28/12:00am 6.6 5.7 6.2 97 0.2 CALM 0 0 0 0 1016.3 1016.3 0.0
 
Date/Time
EST
Temp
°C
App
Temp
°C
Dew
Point
°C
Rel
Hum
%
Delta-T
°C
Wind Press
QNH
hPa
Press
MSL
hPa
Rain since
9am
mm
Dir  Spd
km/h
Gust
km/h
Spd
kts
Gust
kts
27/11:30pm 6.6 5.7 6.2 97 0.2 CALM 0 2 0 1 1016.6 1016.6 0.0
27/11:00pm 7.3 6.6 6.9 97 0.2 CALM 0 0 0 0 1017.0 1017.0 0.0
27/10:30pm 7.5 6.8 7.1 97 0.2 CALM 0 0 0 0 1017.3 1017.3 0.0
27/10:00pm 7.7 7.1 7.3 97 0.2 CALM 0 0 0 0 1017.7 1017.7 0.0
27/09:30pm 8.8 8.4 8.4 97 0.2 CALM 0 0 0 0 1017.8 1017.8 0.0
27/09:00pm 9.1 7.6 8.5 96 0.3 S 6 7 3 4 1017.9 1017.9 0.0
27/08:30pm 9.0 6.9 8.2 95 0.4 SW 9 13 5 7 1017.9 1017.9 0.0
27/08:00pm 9.1 7.9 8.2 94 0.4 SSW 4 7 2 4 1017.9 1017.9 0.0
27/07:30pm 9.6 8.8 8.2 91 0.7 SW 2 7 1 4 1018.0 1018.0 0.0
27/07:00pm 10.8 8.7 9.6 92 0.6 WSW 11 13 6 7 1017.9 1017.9 0.0
27/06:30pm 11.2 8.8 10.0 92 0.6 WSW 13 15 7 8 1017.9 1017.9 0.0
27/06:00pm 12.1 10.2 10.5 90 0.8 WSW 11 13 6 7 1017.6 1017.6 0.0
27/05:30pm 13.6 12.5 10.8 83 1.5 WSW 7 9 4 5 1017.4 1017.4 0.0
27/05:00pm 16.0 16.0 11.0 72 2.7 NNE 2 6 1 3 1017.3 1017.3 0.0
27/04:30pm 18.5 17.6 11.3 63 3.9 NE 7 9 4 5 1017.3 1017.3 0.0
27/04:00pm 19.4 17.2 10.7 57 4.7 NE 13 15 7 8 1017.3 1017.3 0.0
27/03:30pm 20.0 18.2 11.0 56 4.9 NNE 11 17 6 9 1017.3 1017.3 0.0
27/03:00pm 20.2 17.9 10.6 54 5.2 N 13 17 7 9 1017.5 1017.5 0.0
27/02:30pm 20.3 18.5 11.0 55 5.1 NNE 11 15 6 8 1017.4 1017.4 0.0
27/02:00pm 19.9 18.4 10.6 55 5.0 NE 9 13 5 7 1017.8 1017.8 0.0
27/01:30pm 19.6 18.2 10.9 57 4.7 NE 9 15 5 8 1018.1 1018.1 0.0

Other Formats:

Comma delimited format used in spreadsheet applications
http://www.bom.gov.au/fwo/IDN60801/IDN60801.95771.axf

JavaScript Object Notation format (JSON) in row-major order
http://www.bom.gov.au/fwo/IDN60801/IDN60801.95771.json